Time;durP1;ratioP1;P1;durP2;ratioP2;P2;SDS_P1;SDS_P2;PMS_P1;PMS_P2;Temp;Humidity;BMP_temperature;BMP_pressure;BME280_temperature;BME280_humidity;BME280_pressure;Samples;Min_cycle;Max_cycle;Signal;HPM_P1;HPM_P2
2022/11/24 00:00:32;;;;;;;14.93;2.80;;;7.00;99.90;;;;;;4988790;28;20117;-64
2022/11/24 00:02:59;;;;;;;20.92;3.47;;;6.90;99.90;;;;;;4975669;28;20041;-62
2022/11/24 00:05:25;;;;;;;10.30;2.85;;;6.80;99.90;;;;;;4987095;28;20027;-62
2022/11/24 00:07:50;;;;;;;17.00;3.88;;;6.80;99.90;;;;;;4987103;28;20019;-61
2022/11/24 00:10:16;;;;;;;20.02;2.97;;;6.80;99.90;;;;;;4992670;28;20476;-60
2022/11/24 00:12:41;;;;;;;16.73;3.15;;;6.80;99.90;;;;;;4985380;28;20038;-60
2022/11/24 00:15:07;;;;;;;21.70;2.97;;;6.90;99.90;;;;;;4983043;28;20369;-63
2022/11/24 00:17:33;;;;;;;31.75;4.88;;;7.00;99.90;;;;;;4998704;28;20032;-62
2022/11/24 00:19:58;;;;;;;31.33;3.22;;;6.90;99.90;;;;;;4993803;28;20141;-63
2022/11/24 00:22:24;;;;;;;18.08;3.25;;;6.90;99.90;;;;;;4984233;28;20027;-63
2022/11/24 00:24:49;;;;;;;22.27;2.53;;;6.80;99.90;;;;;;4989747;28;20578;-63
2022/11/24 00:27:15;;;;;;;29.35;3.95;;;6.80;99.90;;;;;;4983865;28;20472;-62
2022/11/24 00:29:40;;;;;;;21.80;3.55;;;6.80;99.90;;;;;;4988169;28;20655;-65
2022/11/24 00:32:06;;;;;;;15.60;2.67;;;6.90;99.90;;;;;;4985355;28;20046;-62
2022/11/24 00:34:32;;;;;;;17.85;2.60;;;6.80;99.90;;;;;;4985808;28;20408;-65
2022/11/24 00:36:58;;;;;;;26.80;3.45;;;6.90;99.90;;;;;;4986818;28;20093;-57
2022/11/24 00:39:23;;;;;;;23.90;2.83;;;6.90;99.90;;;;;;4989325;28;20037;-62
2022/11/24 00:41:48;;;;;;;9.25;3.42;;;6.90;99.90;;;;;;4984368;28;20030;-65
2022/11/24 00:44:14;;;;;;;15.27;2.20;;;6.90;99.90;;;;;;4984217;28;20077;-60
2022/11/24 00:46:40;;;;;;;20.58;2.63;;;6.80;99.90;;;;;;4984593;28;20030;-59
2022/11/24 00:49:06;;;;;;;15.70;2.50;;;6.80;99.90;;;;;;4987936;28;20037;-62
2022/11/24 00:51:32;;;;;;;15.82;3.15;;;6.90;99.90;;;;;;4987755;28;20018;-59
2022/11/24 00:53:59;;;;;;;12.32;2.72;;;6.90;99.90;;;;;;4988190;28;20384;-59
2022/11/24 00:56:26;;;;;;;20.48;3.20;;;6.90;99.90;;;;;;4985707;28;20030;-58
2022/11/24 00:58:52;;;;;;;17.73;2.70;;;6.90;99.90;;;;;;4989917;28;20057;-59
2022/11/24 01:01:20;;;;;;;15.40;2.28;;;6.90;99.90;;;;;;4987467;28;20077;-63
2022/11/24 01:03:46;;;;;;;11.77;2.83;;;6.80;99.90;;;;;;4985959;28;20037;-63
2022/11/24 01:06:20;;;;;;;14.57;2.83;;;6.80;99.90;;;;;;4990220;28;20014;-59
2022/11/24 01:08:46;;;;;;;17.52;3.58;;;6.70;99.90;;;;;;4991509;28;20385;-63
2022/11/24 01:11:15;;;;;;;13.90;2.83;;;6.70;99.90;;;;;;4986146;28;20019;-63
2022/11/24 01:13:42;;;;;;;11.15;2.45;;;6.70;99.90;;;;;;4983150;28;20037;-61
2022/11/24 01:16:22;;;;;;;15.30;2.58;;;6.60;99.90;;;;;;4980040;28;20049;-60
2022/11/24 01:18:47;;;;;;;14.55;2.17;;;6.60;99.90;;;;;;4986351;28;20097;-61
2022/11/24 01:21:14;;;;;;;18.80;2.92;;;6.50;99.90;;;;;;4994017;28;20325;-63
2022/11/24 01:23:39;;;;;;;11.60;2.28;;;6.50;99.90;;;;;;4986470;28;20022;-59
2022/11/24 01:26:10;;;;;;;21.65;2.85;;;6.50;99.90;;;;;;4985404;28;20059;-62
2022/11/24 01:28:36;;;;;;;19.90;3.42;;;6.60;99.90;;;;;;4989449;28;20022;-58
2022/11/24 01:31:05;;;;;;;12.70;2.45;;;6.60;99.90;;;;;;4986628;28;20026;-63
2022/11/24 01:33:31;;;;;;;12.95;3.03;;;6.60;99.90;;;;;;4988805;28;20058;-61
2022/11/24 01:35:57;;;;;;;12.57;3.08;;;6.70;99.90;;;;;;4991503;28;20037;-61
2022/11/24 01:38:24;;;;;;;13.77;2.55;;;6.70;99.90;;;;;;4992577;28;20027;-61
2022/11/24 01:41:19;;;;;;;8.90;2.63;;;6.60;99.90;;;;;;4995038;28;20026;-63
2022/11/24 01:43:45;;;;;;;;;;;6.60;99.90;;;;;;4987917;28;20396;-60
2022/11/24 01:46:42;;;;;;;12.15;2.30;;;6.60;99.90;;;;;;4987230;28;19917;-62
2022/11/24 01:49:12;;;;;;;20.73;2.72;;;6.60;99.90;;;;;;5001065;28;20026;-58
2022/11/24 01:51:47;;;;;;;15.32;2.72;;;6.60;99.90;;;;;;4994642;28;20500;-61
2022/11/24 01:54:33;;;;;;;16.42;2.40;;;6.50;99.90;;;;;;4991015;28;20026;-62
2022/11/24 01:57:10;;;;;;;12.80;3.08;;;6.40;99.90;;;;;;4997126;28;20416;-63
2022/11/24 01:59:36;;;;;;;9.00;2.97;;;6.40;99.90;;;;;;4994123;28;20026;-63
2022/11/24 02:02:01;;;;;;;16.27;3.00;;;6.40;99.90;;;;;;4990040;28;20101;-63
2022/11/24 02:04:31;;;;;;;11.32;1.83;;;6.40;99.90;;;;;;4990772;28;20031;-60
2022/11/24 02:06:59;;;;;;;16.50;2.30;;;6.40;99.90;;;;;;4995981;28;20030;-63
2022/11/24 02:09:31;;;;;;;10.45;4.30;;;6.40;99.90;;;;;;4996682;28;20046;-63
2022/11/24 02:11:59;;;;;;;11.50;2.20;;;6.30;99.90;;;;;;4991152;28;20510;-63
2022/11/24 02:14:26;;;;;;;12.65;2.00;;;6.30;99.90;;;;;;4982815;28;20054;-62
2022/11/24 02:16:52;;;;;;;9.63;2.47;;;6.30;99.90;;;;;;4991312;28;20022;-62
2022/11/24 02:19:29;;;;;;;20.75;3.40;;;6.30;99.90;;;;;;4996063;28;20129;-61
2022/11/24 02:21:55;;;;;;;16.00;2.63;;;6.40;99.90;;;;;;4991857;28;20058;-61
2022/11/24 02:24:30;;;;;;;23.00;3.28;;;6.50;99.90;;;;;;4988428;28;20060;-58
2022/11/24 02:26:56;;;;;;;16.70;4.45;;;6.50;99.90;;;;;;4996042;28;20018;-56
2022/11/24 02:29:22;;;;;;;16.90;4.00;;;6.60;99.90;;;;;;4995607;28;20022;-63
2022/11/24 02:31:51;;;;;;;19.15;3.95;;;6.60;99.90;;;;;;4990343;28;20033;-63
2022/11/24 02:34:17;;;;;;;21.92;4.32;;;6.70;99.90;;;;;;4987975;28;20125;-62
2022/11/24 02:36:43;;;;;;;27.40;4.25;;;6.70;99.90;;;;;;4992566;28;20114;-62
2022/11/24 02:39:11;;;;;;;32.58;4.35;;;7.00;99.90;;;;;;4992136;28;20108;-63
2022/11/24 02:41:38;;;;;;;25.30;3.45;;;7.00;99.90;;;;;;4996806;28;20079;-61
2022/11/24 02:44:03;;;;;;;41.97;4.60;;;7.00;99.90;;;;;;4992145;28;20062;-63
2022/11/24 02:46:29;;;;;;;28.25;3.63;;;7.00;99.90;;;;;;4992791;28;20084;-59
2022/11/24 02:48:54;;;;;;;17.05;3.40;;;7.00;99.90;;;;;;4992015;28;20026;-63
2022/11/24 02:51:20;;;;;;;17.90;3.72;;;7.00;99.90;;;;;;4992697;28;20046;-61
2022/11/24 02:53:46;;;;;;;15.18;3.03;;;7.00;99.90;;;;;;4991110;28;20137;-64
2022/11/24 02:56:11;;;;;;;14.13;3.03;;;6.90;99.90;;;;;;4994282;28;20498;-62
2022/11/24 02:58:37;;;;;;;21.77;3.67;;;6.90;99.90;;;;;;4989430;28;20464;-63
2022/11/24 03:01:03;;;;;;;21.05;3.03;;;6.90;99.90;;;;;;4993426;28;20556;-58
2022/11/24 03:03:28;;;;;;;10.95;2.75;;;6.80;99.90;;;;;;4988985;28;20542;-59
2022/11/24 03:05:54;;;;;;;9.32;2.58;;;6.80;99.90;;;;;;4974503;28;20404;-62
2022/11/24 03:08:19;;;;;;;19.02;2.90;;;6.80;99.90;;;;;;4971474;28;20019;-61
2022/11/24 03:10:45;;;;;;;21.63;2.38;;;6.80;99.90;;;;;;4993543;28;20033;-60
2022/11/24 03:13:10;;;;;;;14.00;3.17;;;6.80;99.90;;;;;;4992260;28;20025;-66
2022/11/24 03:15:36;;;;;;;28.67;3.22;;;6.80;99.90;;;;;;4989158;28;20588;-64
2022/11/24 03:18:02;;;;;;;20.88;2.78;;;6.80;99.90;;;;;;4990333;28;20504;-62
2022/11/24 03:20:28;;;;;;;18.90;2.70;;;6.80;99.90;;;;;;4996957;28;20025;-61
2022/11/24 03:22:53;;;;;;;20.45;3.45;;;6.80;99.90;;;;;;4991959;28;20106;-62
2022/11/24 03:25:19;;;;;;;19.35;2.80;;;6.80;99.90;;;;;;4990407;28;20050;-63
2022/11/24 03:27:45;;;;;;;12.43;2.30;;;6.70;99.90;;;;;;4993170;28;20034;-62
2022/11/24 03:30:12;;;;;;;21.73;2.53;;;6.80;99.90;;;;;;4990222;28;20034;-62
2022/11/24 03:32:37;;;;;;;13.25;2.78;;;6.80;99.90;;;;;;4993414;28;20503;-63
2022/11/24 03:35:03;;;;;;;17.92;3.47;;;6.80;99.90;;;;;;4987259;28;20077;-63
2022/11/24 03:37:29;;;;;;;17.77;1.98;;;6.90;99.90;;;;;;4990766;28;20026;-59
2022/11/24 03:39:55;;;;;;;15.40;2.60;;;6.90;99.90;;;;;;4989621;28;20030;-62
2022/11/24 03:42:20;;;;;;;23.77;3.08;;;6.90;99.90;;;;;;4990310;28;20440;-62
2022/11/24 03:44:46;;;;;;;23.67;2.47;;;7.00;99.90;;;;;;4990045;28;20034;-62
2022/11/24 03:47:12;;;;;;;29.95;3.58;;;7.00;99.90;;;;;;4985471;28;20022;-61
2022/11/24 03:49:38;;;;;;;18.17;2.92;;;7.00;99.90;;;;;;4996085;28;20025;-59
2022/11/24 03:52:03;;;;;;;16.85;2.38;;;7.00;99.90;;;;;;4990037;28;20022;-61
2022/11/24 03:54:29;;;;;;;13.20;2.25;;;7.00;99.90;;;;;;4987490;28;20023;-60
2022/11/24 03:56:54;;;;;;;12.77;2.58;;;7.00;99.90;;;;;;4991662;28;20094;-62
2022/11/24 03:59:20;;;;;;;11.57;2.63;;;7.00;99.90;;;;;;5000854;28;20026;-58
2022/11/24 04:01:46;;;;;;;24.17;3.85;;;7.00;99.90;;;;;;4989158;28;20121;-60
2022/11/24 04:04:12;;;;;;;13.13;2.40;;;7.00;99.90;;;;;;4982279;28;20030;-60
2022/11/24 04:06:38;;;;;;;15.98;2.88;;;7.00;99.90;;;;;;4990900;28;20021;-61
2022/11/24 04:09:03;;;;;;;22.08;3.17;;;7.00;99.90;;;;;;4993576;28;20097;-61
2022/11/24 04:14:13;;;;;;;20.30;3.35;;;7.00;99.90;;;;;;4973838;28;20111;-56
2022/11/24 04:16:39;;;;;;;18.92;2.70;;;6.90;99.90;;;;;;4993660;28;20030;-61
2022/11/24 04:19:05;;;;;;;17.85;3.00;;;6.90;99.90;;;;;;4991578;28;20042;-62
2022/11/24 04:21:30;;;;;;;9.57;2.45;;;6.90;99.90;;;;;;4992067;28;20027;-60
2022/11/24 04:23:56;;;;;;;19.50;3.20;;;6.90;99.90;;;;;;4988620;28;20027;-56
2022/11/24 04:26:22;;;;;;;9.38;1.70;;;6.90;99.90;;;;;;4982795;28;20030;-60
2022/11/24 04:28:47;;;;;;;12.52;2.15;;;6.80;99.90;;;;;;4985678;28;20052;-62
2022/11/24 04:31:13;;;;;;;7.53;2.17;;;6.90;99.90;;;;;;4987221;28;20034;-58
2022/11/24 04:33:38;;;;;;;13.43;3.53;;;6.90;99.90;;;;;;4990485;28;20117;-57
2022/11/24 04:36:04;;;;;;;12.02;2.17;;;6.90;99.90;;;;;;4992717;28;20399;-57
2022/11/24 04:38:30;;;;;;;22.13;2.58;;;6.90;99.90;;;;;;4984566;28;20034;-61
2022/11/24 04:41:01;;;;;;;11.73;2.17;;;7.00;99.90;;;;;;4991312;28;20431;-63
2022/11/24 04:43:26;;;;;;;14.68;2.53;;;7.00;99.90;;;;;;4985400;28;20034;-62
2022/11/24 04:45:52;;;;;;;17.35;2.95;;;7.10;99.90;;;;;;4989771;28;20027;-63
2022/11/24 04:48:17;;;;;;;11.13;2.08;;;7.10;99.90;;;;;;4990948;28;20062;-61
2022/11/24 04:50:43;;;;;;;12.10;2.58;;;7.10;99.90;;;;;;4987149;28;20106;-62
2022/11/24 04:53:10;;;;;;;9.77;1.80;;;7.20;99.90;;;;;;4987564;28;20526;-66
2022/11/24 04:55:37;;;;;;;12.30;2.35;;;7.20;99.90;;;;;;4987759;28;20029;-58
2022/11/24 04:58:03;;;;;;;17.98;2.65;;;7.20;99.90;;;;;;4992594;28;20460;-58
2022/11/24 05:00:29;;;;;;;20.67;5.07;;;7.20;99.90;;;;;;4990902;28;20105;-63
2022/11/24 05:02:55;;;;;;;18.38;3.30;;;7.30;99.90;;;;;;4981966;28;20023;-59
2022/11/24 05:05:20;;;;;;;16.67;2.78;;;7.40;99.90;;;;;;4982662;28;20022;-58
2022/11/24 05:07:46;;;;;;;23.20;2.88;;;7.40;99.90;;;;;;4991391;28;20045;-58
2022/11/24 05:12:58;;;;;;;12.85;2.85;;;7.40;99.90;;;;;;4982668;28;20049;-58
2022/11/24 05:15:24;;;;;;;21.92;3.00;;;7.50;99.90;;;;;;4986601;28;20125;-58
2022/11/24 05:17:49;;;;;;;20.98;3.63;;;7.50;99.90;;;;;;4992718;28;20248;-56
2022/11/24 05:20:15;;;;;;;25.60;2.95;;;7.50;99.90;;;;;;4984094;28;20511;-59
2022/11/24 05:22:40;;;;;;;9.07;2.10;;;7.50;99.90;;;;;;4988472;28;20026;-61
2022/11/24 05:25:06;;;;;;;18.55;2.88;;;7.50;99.90;;;;;;4993452;28;20050;-59
2022/11/24 05:27:32;;;;;;;19.58;2.90;;;7.50;99.90;;;;;;4991413;28;20050;-64
2022/11/24 05:29:57;;;;;;;17.60;2.83;;;7.50;99.90;;;;;;4985166;28;20488;-60
2022/11/24 05:32:23;;;;;;;15.07;4.93;;;7.50;99.90;;;;;;4987966;28;20027;-61
2022/11/24 05:34:48;;;;;;;23.52;3.53;;;7.50;99.90;;;;;;4989689;28;20034;-62
2022/11/24 05:37:14;;;;;;;21.55;3.60;;;7.50;99.90;;;;;;4984089;28;20050;-60
2022/11/24 05:39:40;;;;;;;17.23;3.65;;;7.50;99.90;;;;;;4989743;28;20033;-62
2022/11/24 05:44:52;;;;;;;22.88;3.08;;;7.60;99.90;;;;;;5007217;23;20637;-57
2022/11/24 05:47:17;;;;;;;19.85;3.08;;;7.60;99.90;;;;;;4997371;28;20018;-58
2022/11/24 05:49:43;;;;;;;20.95;4.35;;;7.60;99.90;;;;;;4988084;28;20022;-56
2022/11/24 05:52:09;;;;;;;27.50;3.28;;;7.70;99.90;;;;;;4989583;28;20027;-56
2022/11/24 05:54:35;;;;;;;30.85;3.58;;;7.70;99.90;;;;;;4989043;28;20026;-57
2022/11/24 05:57:00;;;;;;;28.60;4.13;;;7.80;99.90;;;;;;4993530;28;20026;-57
2022/11/24 05:59:26;;;;;;;28.45;3.88;;;7.90;99.90;;;;;;4989624;28;20503;-59
2022/11/24 06:01:51;;;;;;;36.45;3.83;;;8.10;99.90;;;;;;4972400;28;20030;-57
2022/11/24 06:04:17;;;;;;;37.75;4.40;;;8.40;99.90;;;;;;4987375;28;20031;-57
2022/11/24 06:06:42;;;;;;;29.10;4.25;;;8.40;99.90;;;;;;4983406;28;20396;-57
2022/11/24 06:09:08;;;;;;;18.52;3.05;;;8.50;99.90;;;;;;4992531;28;20027;-56
2022/11/24 06:11:33;;;;;;;30.30;3.28;;;8.40;99.90;;;;;;4988854;28;20396;-59
2022/11/24 06:13:59;;;;;;;30.38;4.53;;;8.50;99.90;;;;;;4979308;28;20044;-59
2022/11/24 06:16:24;;;;;;;21.58;2.22;;;8.50;99.90;;;;;;4995245;28;20038;-57
2022/11/24 06:18:50;;;;;;;23.38;2.67;;;8.50;99.90;;;;;;4988891;28;20101;-59
2022/11/24 06:21:16;;;;;;;22.42;3.00;;;8.50;99.90;;;;;;4978481;28;20109;-58
2022/11/24 06:23:41;;;;;;;19.02;1.80;;;8.60;99.90;;;;;;4982015;28;20077;-57
2022/11/24 06:26:08;;;;;;;17.55;2.22;;;8.70;99.90;;;;;;4982367;28;20026;-57
2022/11/24 06:28:34;;;;;;;17.20;2.00;;;8.60;99.90;;;;;;4986183;28;20022;-59
2022/11/24 06:31:04;;;;;;;16.20;3.22;;;8.50;99.90;;;;;;4988492;28;20369;-56
2022/11/24 06:33:34;;;;;;;13.73;1.77;;;8.50;99.90;;;;;;4987919;28;20554;-56
2022/11/24 06:36:01;;;;;;;11.40;2.55;;;8.60;99.90;;;;;;4988313;28;20141;-57
2022/11/24 06:38:27;;;;;;;16.83;2.53;;;8.50;99.90;;;;;;4990322;28;20423;-58
2022/11/24 06:41:11;;;;;;;11.70;1.60;;;8.60;99.90;;;;;;4991356;28;20030;-57
2022/11/24 06:43:36;;;;;;;14.82;1.27;;;8.50;99.90;;;;;;4991069;28;20022;-55
2022/11/24 06:46:02;;;;;;;16.30;1.73;;;8.50;99.90;;;;;;4986000;28;20157;-56
2022/11/24 06:48:28;;;;;;;11.35;1.40;;;8.40;99.90;;;;;;4986107;28;20023;-58
2022/11/24 06:50:58;;;;;;;15.07;2.72;;;8.40;99.90;;;;;;4991515;28;20420;-58
2022/11/24 06:53:23;;;;;;;9.85;1.58;;;8.40;99.90;;;;;;4991962;28;20101;-57
2022/11/24 06:55:50;;;;;;;15.90;2.03;;;8.40;99.90;;;;;;4992744;28;20034;-56
2022/11/24 06:58:16;;;;;;;5.30;1.13;;;8.40;99.90;;;;;;4990933;28;20038;-55
2022/11/24 07:00:41;;;;;;;15.40;1.83;;;8.40;99.90;;;;;;4992033;28;20369;-57
2022/11/24 07:03:15;;;;;;;12.77;1.35;;;8.30;99.90;;;;;;4991301;28;20114;-59
2022/11/24 07:05:42;;;;;;;4.40;1.08;;;8.40;99.90;;;;;;4990363;28;20045;-59
2022/11/24 07:08:07;;;;;;;12.57;1.40;;;8.30;99.90;;;;;;4991966;28;20026;-58
2022/11/24 07:10:33;;;;;;;6.78;1.60;;;8.30;99.90;;;;;;4991132;28;20030;-58
2022/11/24 07:12:59;;;;;;;8.60;0.95;;;8.30;99.90;;;;;;4991221;28;20030;-58
2022/11/24 07:15:24;;;;;;;9.43;1.70;;;8.20;99.90;;;;;;4990000;28;20074;-59
2022/11/24 07:17:50;;;;;;;9.65;1.77;;;8.20;99.90;;;;;;4989695;28;20026;-58
2022/11/24 07:20:15;;;;;;;9.60;1.88;;;8.00;99.90;;;;;;4991338;28;20037;-59
2022/11/24 07:22:41;;;;;;;11.52;1.60;;;8.10;99.90;;;;;;4983515;28;20041;-59
2022/11/24 07:25:08;;;;;;;10.52;2.22;;;8.00;99.90;;;;;;4989246;28;20054;-60
2022/11/24 07:27:34;;;;;;;11.93;1.50;;;7.90;99.90;;;;;;4989519;28;20172;-59
2022/11/24 07:30:00;;;;;;;7.57;1.85;;;7.80;99.90;;;;;;4990742;28;20424;-59
2022/11/24 07:32:25;;;;;;;12.50;1.90;;;7.80;99.90;;;;;;4991184;28;20030;-59
2022/11/24 07:34:51;;;;;;;13.25;1.70;;;7.70;99.90;;;;;;4990898;28;20045;-59
2022/11/24 07:37:16;;;;;;;12.25;2.13;;;7.70;99.90;;;;;;4990968;28;20026;-59
2022/11/24 07:39:42;;;;;;;9.98;2.53;;;7.60;99.90;;;;;;4978252;28;20030;-59
2022/11/24 07:42:09;;;;;;;13.18;2.70;;;7.50;99.90;;;;;;4989791;28;20030;-60
2022/11/24 07:44:34;;;;;;;7.88;1.55;;;7.40;99.90;;;;;;4988672;28;20049;-58
2022/11/24 07:47:00;;;;;;;14.75;1.90;;;7.40;99.90;;;;;;4991471;28;20620;-59
2022/11/24 07:49:25;;;;;;;10.18;1.90;;;7.40;99.90;;;;;;4989851;28;20018;-59
2022/11/24 07:51:51;;;;;;;6.40;1.77;;;7.30;99.90;;;;;;4990090;28;20431;-58
2022/11/24 07:54:16;;;;;;;9.65;2.22;;;7.30;99.90;;;;;;4986530;28;20633;-58
2022/11/24 07:56:42;;;;;;;8.35;1.38;;;7.40;99.90;;;;;;4990842;28;20483;-58
2022/11/24 07:59:08;;;;;;;21.45;1.85;;;7.60;99.90;;;;;;4990143;28;20038;-59
2022/11/24 08:01:33;;;;;;;9.48;1.70;;;7.60;99.90;;;;;;4990106;28;20041;-59
2022/11/24 08:04:00;;;;;;;8.88;1.42;;;7.60;99.90;;;;;;4989915;28;20029;-59
2022/11/24 08:06:28;;;;;;;4.60;1.33;;;7.60;99.90;;;;;;4991751;28;20034;-59
2022/11/24 08:08:54;;;;;;;13.05;2.13;;;7.70;99.90;;;;;;4989224;28;20026;-60
2022/11/24 08:11:20;;;;;;;7.90;1.52;;;7.70;99.90;;;;;;4973256;28;20077;-61
2022/11/24 08:13:46;;;;;;;7.28;1.35;;;7.80;99.90;;;;;;4986368;28;20030;-59
2022/11/24 08:16:14;;;;;;;13.48;1.50;;;7.90;99.90;;;;;;4986966;28;20030;-58
2022/11/24 08:18:40;;;;;;;18.77;2.75;;;8.00;99.90;;;;;;4990698;28;20042;-59
2022/11/24 08:21:07;;;;;;;8.05;1.60;;;8.00;99.90;;;;;;4991208;28;20472;-57
2022/11/24 08:23:33;;;;;;;10.48;1.48;;;8.10;99.90;;;;;;4989123;28;20034;-58
2022/11/24 08:26:04;;;;;;;11.43;2.20;;;8.20;99.90;;;;;;4988100;28;20121;-59
2022/11/24 08:28:30;;;;;;;13.95;1.70;;;8.30;99.90;;;;;;4990715;28;20018;-58
2022/11/24 08:31:12;;;;;;;10.60;1.30;;;8.40;99.90;;;;;;4984138;28;20034;-58
2022/11/24 08:33:38;;;;;;;7.30;1.80;;;8.40;99.90;;;;;;4989840;28;20041;-58
2022/11/24 08:36:13;;;;;;;8.82;2.20;;;8.40;99.90;;;;;;4989622;28;20050;-58
2022/11/24 08:38:39;;;;;;;7.68;1.83;;;8.60;99.90;;;;;;4990543;28;20085;-60
2022/11/24 08:41:08;;;;;;;7.60;1.55;;;8.60;99.90;;;;;;4990673;28;20042;-58
2022/11/24 08:43:34;;;;;;;14.13;1.77;;;8.80;99.90;;;;;;4987379;28;20033;-58
2022/11/24 08:46:02;;;;;;;11.45;1.48;;;8.80;99.90;;;;;;4988420;28;20030;-55
2022/11/24 08:48:28;;;;;;;10.27;1.45;;;8.80;99.90;;;;;;4990614;28;20118;-54
2022/11/24 08:50:53;;;;;;;13.73;1.63;;;8.80;99.90;;;;;;4975709;28;20023;-55
2022/11/24 08:53:19;;;;;;;7.05;1.45;;;8.80;99.90;;;;;;4974148;28;20437;-56
2022/11/24 08:55:44;;;;;;;15.48;2.42;;;8.80;99.90;;;;;;4988656;28;20038;-53
2022/11/24 08:58:10;;;;;;;12.77;3.30;;;8.90;99.90;;;;;;4990121;28;20031;-54
2022/11/24 09:00:35;;;;;;;9.77;1.65;;;8.80;99.90;;;;;;4989637;28;20034;-54
2022/11/24 09:03:01;;;;;;;19.73;2.13;;;8.80;99.90;;;;;;4989419;28;20539;-54
2022/11/24 09:05:26;;;;;;;18.05;2.30;;;8.90;99.90;;;;;;4978333;28;20077;-58
2022/11/24 09:07:52;;;;;;;14.75;2.72;;;9.00;99.90;;;;;;4985267;28;20101;-54
2022/11/24 09:10:18;;;;;;;14.48;1.48;;;9.10;99.90;;;;;;4989754;28;20480;-54
2022/11/24 09:12:45;;;;;;;11.48;1.30;;;9.10;99.90;;;;;;4983528;28;20425;-55
2022/11/24 09:15:11;;;;;;;9.55;1.65;;;9.20;99.90;;;;;;4980932;28;20027;-55
2022/11/24 09:17:37;;;;;;;16.42;2.40;;;9.40;99.90;;;;;;4987352;28;20544;-55
2022/11/24 09:20:04;;;;;;;13.38;1.83;;;9.40;99.90;;;;;;4989176;28;20022;-56
2022/11/24 09:22:30;;;;;;;13.68;2.10;;;9.40;99.90;;;;;;4987253;28;20030;-54
2022/11/24 09:24:55;;;;;;;8.35;1.83;;;9.50;99.90;;;;;;4984257;28;20381;-57
2022/11/24 09:27:21;;;;;;;18.17;1.73;;;9.50;99.90;;;;;;4983058;28;20031;-59
2022/11/24 09:29:47;;;;;;;12.13;1.48;;;9.50;99.90;;;;;;4987002;28;20054;-57
2022/11/24 09:32:13;;;;;;;18.98;1.75;;;9.50;99.90;;;;;;4982192;28;20080;-55
2022/11/24 09:34:39;;;;;;;11.65;1.83;;;9.70;99.90;;;;;;4985038;28;20492;-54
2022/11/24 09:37:05;;;;;;;11.77;1.83;;;9.70;99.90;;;;;;4988759;28;20038;-55
2022/11/24 09:39:32;;;;;;;16.38;1.80;;;9.70;99.90;;;;;;4987324;28;20030;-55
2022/11/24 09:42:06;;;;;;;12.98;1.90;;;9.80;99.90;;;;;;4985747;28;20377;-54
2022/11/24 09:44:32;;;;;;;;;;;9.90;99.90;;;;;;4986809;28;20073;-54
2022/11/24 09:47:23;;;;;;;20.27;1.85;;;9.80;99.90;;;;;;4980514;28;20394;-55
2022/11/24 09:49:49;;;;;;;6.75;1.42;;;9.90;99.90;;;;;;4986063;28;20480;-55
2022/11/24 09:52:34;;;;;;;9.13;1.80;;;9.90;99.90;;;;;;4992585;28;20080;-54
2022/11/24 09:55:03;;;;;;;17.73;1.83;;;10.00;99.90;;;;;;4984073;28;20022;-55
2022/11/24 09:57:34;;;;;;;9.63;1.77;;;10.10;99.90;;;;;;4984829;28;20101;-58
2022/11/24 10:00:08;;;;;;;17.42;1.67;;;10.10;99.90;;;;;;4988886;28;20026;-57
2022/11/24 10:02:34;;;;;;;;;;;10.20;99.90;;;;;;4986366;28;20511;-59
2022/11/24 10:04:59;;;;;;;6.88;1.42;;;10.30;99.90;;;;;;4986433;28;20009;-56
2022/11/24 10:07:36;;;;;;;15.25;2.42;;;10.40;99.90;;;;;;4983100;28;20025;-54
2022/11/24 10:10:11;;;;;;;15.27;3.35;;;10.40;99.90;;;;;;4989674;28;20033;-55
2022/11/24 10:13:15;;;;;;;12.98;1.92;;;10.40;99.90;;;;;;4990453;28;20030;-56
2022/11/24 10:15:53;;;;;;;14.73;1.83;;;10.50;99.90;;;;;;4988582;28;20034;-58
2022/11/24 10:18:24;;;;;;;16.38;1.98;;;10.50;99.90;;;;;;4988365;28;20189;-59
2022/11/24 10:21:17;;;;;;;7.95;1.50;;;10.50;99.90;;;;;;4989688;28;20022;-59
2022/11/24 10:24:11;;;;;;;10.98;1.48;;;10.50;99.90;;;;;;4987345;28;20814;-58
2022/11/24 10:26:46;;;;;;;8.65;1.48;;;10.60;99.90;;;;;;4989751;28;20035;-58
2022/11/24 10:29:18;;;;;;;15.75;2.08;;;10.60;99.90;;;;;;4988764;28;20547;-57
2022/11/24 10:31:44;;;;;;;13.85;1.52;;;10.60;99.90;;;;;;4988492;28;20088;-57
2022/11/24 10:34:16;;;;;;;14.73;2.97;;;10.70;99.90;;;;;;4982602;28;20118;-59
2022/11/24 10:36:42;;;;;;;13.55;2.28;;;10.70;99.90;;;;;;4983245;28;20141;-58
2022/11/24 10:39:19;;;;;;;18.38;2.22;;;10.70;99.90;;;;;;4987081;28;20129;-59
2022/11/24 10:42:06;;;;;;;11.30;1.67;;;10.70;99.90;;;;;;4984769;28;20054;-59
2022/11/24 10:44:32;;;;;;;17.83;1.92;;;10.80;99.90;;;;;;4960366;28;20027;-59
2022/11/24 10:46:58;;;;;;;12.80;1.98;;;10.80;99.90;;;;;;4984058;28;20026;-60
2022/11/24 10:49:29;;;;;;;7.93;1.70;;;10.80;99.90;;;;;;4989221;28;20034;-58
2022/11/24 10:52:15;;;;;;;9.60;1.70;;;10.90;99.90;;;;;;4971029;28;20113;-58
2022/11/24 10:54:58;;;;;;;15.65;1.85;;;11.00;99.90;;;;;;4982433;28;20025;-59
2022/11/24 10:57:35;;;;;;;13.48;2.83;;;11.00;99.90;;;;;;4984273;28;20404;-58
2022/11/24 11:00:13;;;;;;;12.43;1.48;;;11.10;99.90;;;;;;4981441;28;20030;-58
2022/11/24 11:02:39;;;;;;;11.73;2.67;;;11.20;99.90;;;;;;4981480;28;20046;-57
2022/11/24 11:05:30;;;;;;;14.10;1.77;;;11.30;99.90;;;;;;4982083;28;20077;-59
2022/11/24 11:08:21;;;;;;;16.13;2.05;;;11.30;99.90;;;;;;4982444;28;20248;-57
2022/11/24 11:11:11;;;;;;;15.82;1.60;;;11.40;99.90;;;;;;4985940;28;20027;-57
2022/11/24 11:13:37;;;;;;;13.07;2.10;;;11.40;99.90;;;;;;4975993;28;20404;-55
2022/11/24 11:16:21;;;;;;;8.45;1.77;;;11.30;99.90;;;;;;4970808;28;20031;-55
2022/11/24 11:18:48;;;;;;;12.77;1.88;;;11.30;99.90;;;;;;4983591;28;20030;-55
2022/11/24 11:21:30;;;;;;;12.95;1.85;;;11.40;99.90;;;;;;4984671;28;20038;-55
2022/11/24 11:23:57;;;;;;;15.68;2.08;;;11.40;99.90;;;;;;4987127;28;20056;-59
2022/11/24 11:26:23;;;;;;;17.45;1.73;;;11.40;99.90;;;;;;4981677;28;20038;-55
2022/11/24 11:29:12;;;;;;;15.55;2.08;;;11.50;99.90;;;;;;4987844;28;20026;-56
2022/11/24 11:31:39;;;;;;;12.77;2.00;;;11.60;99.90;;;;;;4983292;28;20018;-56
2022/11/24 11:34:08;;;;;;;16.27;2.22;;;11.60;99.90;;;;;;4981439;28;20030;-55
2022/11/24 11:36:34;;;;;;;14.15;2.45;;;11.60;99.90;;;;;;4986621;28;20035;-55
2022/11/24 11:39:01;;;;;;;13.95;3.05;;;11.60;99.90;;;;;;4988612;28;20026;-58
2022/11/24 11:41:39;;;;;;;19.77;2.85;;;11.70;99.90;;;;;;4982528;28;20034;-57
2022/11/24 11:44:32;;;;;;;10.40;2.03;;;11.70;99.90;;;;;;4985587;28;20113;-54
2022/11/24 11:46:59;;;;;;;10.65;1.75;;;11.90;99.90;;;;;;4982194;28;20026;-56
2022/11/24 11:49:25;;;;;;;13.48;2.35;;;11.90;99.90;;;;;;4984186;28;20105;-57
2022/11/24 11:52:21;;;;;;;15.93;1.48;;;11.90;99.90;;;;;;4976056;28;20105;-55
2022/11/24 11:55:16;;;;;;;9.75;2.10;;;11.90;99.90;;;;;;4982071;28;20041;-56
2022/11/24 11:58:09;;;;;;;9.20;1.95;;;11.90;99.90;;;;;;4984140;28;20039;-58
2022/11/24 12:00:43;;;;;;;18.70;1.73;;;11.90;99.90;;;;;;4982932;28;20118;-56
2022/11/24 12:03:12;;;;;;;;;;;12.00;99.90;;;;;;4983468;28;20084;-58
2022/11/24 12:05:53;;;;;;;13.43;1.90;;;12.20;99.90;;;;;;4977480;28;19997;-59
2022/11/24 12:08:24;;;;;;;12.60;1.30;;;12.30;99.90;;;;;;4985084;28;20109;-57
2022/11/24 12:10:57;;;;;;;13.00;1.48;;;12.30;99.90;;;;;;4986143;28;20480;-57
2022/11/24 12:13:28;;;;;;;11.63;1.70;;;12.30;99.90;;;;;;4987207;28;20042;-57
2022/11/24 12:15:57;;;;;;;8.35;1.88;;;12.50;99.90;;;;;;4983292;28;20026;-56
2022/11/24 12:18:27;;;;;;;13.55;2.08;;;12.70;99.90;;;;;;4981835;28;20027;-57
2022/11/24 12:21:21;;;;;;;9.95;2.08;;;12.50;99.90;;;;;;4986106;28;20030;-57
2022/11/24 12:24:15;;;;;;;16.03;1.83;;;12.70;99.90;;;;;;4979861;28;20528;-56
2022/11/24 12:26:49;;;;;;;17.63;2.30;;;12.80;99.90;;;;;;4979191;28;21983;-58
2022/11/24 12:29:42;;;;;;;14.90;2.40;;;12.70;99.90;;;;;;4985962;28;20076;-58
2022/11/24 12:32:37;;;;;;;13.15;1.98;;;12.60;99.90;;;;;;4981320;28;20057;-58
2022/11/24 12:35:18;;;;;;;;;;;12.70;99.90;;;;;;4981097;28;20034;-57
2022/11/24 12:38:03;;;;;;;;;;;12.80;99.90;;;;;;4980038;28;19918;-58
2022/11/24 12:40:43;;;;;;;;;;;13.00;99.90;;;;;;4978139;28;19949;-58
2022/11/24 12:43:08;;;;;;;;;;;12.90;99.90;;;;;;4978839;28;20406;-58
2022/11/24 12:45:41;;;;;;;;;;;13.10;99.90;;;;;;4977007;28;20008;-58
2022/11/24 12:48:25;;;;;;;;;;;13.00;99.90;;;;;;4984105;28;19945;-59
2022/11/24 12:50:53;;;;;;;;;;;13.00;99.90;;;;;;4983351;28;20395;-58
2022/11/24 12:53:22;;;;;;;;;;;12.90;99.90;;;;;;4980139;28;19953;-58
2022/11/24 12:55:48;;;;;;;;;;;12.90;99.90;;;;;;4983244;28;19921;-59
2022/11/24 12:58:19;;;;;;;;;;;12.90;99.90;;;;;;4989005;28;19909;-59
2022/11/24 13:01:03;;;;;;;;;;;13.00;99.90;;;;;;4981192;28;19917;-58
2022/11/24 13:04:01;;;;;;;;;;;12.90;99.90;;;;;;4987139;28;20032;-57
2022/11/24 13:06:32;;;;;;;;;;;12.80;99.90;;;;;;4943979;28;19914;-59
2022/11/24 13:08:58;;;;;;;;;;;12.80;99.90;;;;;;4986087;28;19936;-57